sensor_id;sensor_type;location;lat;lon;timestamp;pressure;altitude;pressure_sealevel;temperature;humidity
58668;BME280;59852;43.086;25.634;2022-07-23T00:02:22;98885.28;;;21.97;42.50
58668;BME280;59852;43.086;25.634;2022-07-23T00:04:48;98885.56;;;22.02;42.07
58668;BME280;59852;43.086;25.634;2022-07-23T00:07:13;98881.81;;;21.73;42.63
58668;BME280;59852;43.086;25.634;2022-07-23T00:09:39;98879.59;;;22.00;43.60
58668;BME280;59852;43.086;25.634;2022-07-23T00:12:04;98881.53;;;22.14;42.25
58668;BME280;59852;43.086;25.634;2022-07-23T00:14:30;98882.19;;;22.31;42.21
58668;BME280;59852;43.086;25.634;2022-07-23T00:16:55;98887.25;;;22.26;41.67
58668;BME280;59852;43.086;25.634;2022-07-23T00:19:20;98879.81;;;22.36;42.65
58668;BME280;59852;43.086;25.634;2022-07-23T00:21:46;98882.38;;;22.29;42.04
58668;BME280;59852;43.086;25.634;2022-07-23T00:24:11;98880.09;;;22.03;42.34
58668;BME280;59852;43.086;25.634;2022-07-23T00:26:36;98883.13;;;22.23;43.31
58668;BME280;59852;43.086;25.634;2022-07-23T00:29:02;98880.84;;;21.89;42.91
58668;BME280;59852;43.086;25.634;2022-07-23T00:31:27;98875.94;;;22.01;43.71
58668;BME280;59852;43.086;25.634;2022-07-23T00:33:52;98878.84;;;21.91;43.23
58668;BME280;59852;43.086;25.634;2022-07-23T00:36:21;98879.56;;;22.08;42.80
58668;BME280;59852;43.086;25.634;2022-07-23T00:38:48;98877.91;;;22.07;43.42
58668;BME280;59852;43.086;25.634;2022-07-23T00:41:13;98872.09;;;22.03;43.04
58668;BME280;59852;43.086;25.634;2022-07-23T00:43:39;98873.56;;;22.06;42.84
58668;BME280;59852;43.086;25.634;2022-07-23T00:46:04;98868.38;;;21.67;42.81
58668;BME280;59852;43.086;25.634;2022-07-23T00:48:29;98866.53;;;21.90;42.37
58668;BME280;59852;43.086;25.634;2022-07-23T00:50:55;98871.53;;;21.93;42.29
58668;BME280;59852;43.086;25.634;2022-07-23T00:53:20;98871.31;;;21.72;42.61
58668;BME280;59852;43.086;25.634;2022-07-23T00:55:46;98880.09;;;22.03;42.25
58668;BME280;59852;43.086;25.634;2022-07-23T00:58:12;98867.78;;;22.25;43.35
58668;BME280;59852;43.086;25.634;2022-07-23T01:00:37;98869.31;;;21.97;42.69
58668;BME280;59852;43.086;25.634;2022-07-23T01:03:03;98870.84;;;21.91;43.03
58668;BME280;59852;43.086;25.634;2022-07-23T01:05:28;98874.53;;;21.67;42.97
58668;BME280;59852;43.086;25.634;2022-07-23T01:07:53;98874.66;;;21.74;43.17
58668;BME280;59852;43.086;25.634;2022-07-23T01:10:19;98870.41;;;21.65;43.48
58668;BME280;59852;43.086;25.634;2022-07-23T01:12:56;98864.56;;;21.61;43.32
58668;BME280;59852;43.086;25.634;2022-07-23T01:15:22;98865.16;;;21.71;42.86
58668;BME280;59852;43.086;25.634;2022-07-23T01:17:48;98859.84;;;21.94;43.30
58668;BME280;59852;43.086;25.634;2022-07-23T01:20:13;98865.84;;;21.73;42.84
58668;BME280;59852;43.086;25.634;2022-07-23T01:22:39;98862.81;;;21.76;43.73
58668;BME280;59852;43.086;25.634;2022-07-23T01:25:04;98859.53;;;21.89;43.18
58668;BME280;59852;43.086;25.634;2022-07-23T01:27:30;98862.50;;;21.71;44.69
58668;BME280;59852;43.086;25.634;2022-07-23T01:29:55;98860.75;;;21.64;43.46
58668;BME280;59852;43.086;25.634;2022-07-23T01:32:22;98861.63;;;21.79;43.54
58668;BME280;59852;43.086;25.634;2022-07-23T01:34:47;98861.63;;;21.56;43.97
58668;BME280;59852;43.086;25.634;2022-07-23T01:37:12;98859.16;;;21.55;44.57
58668;BME280;59852;43.086;25.634;2022-07-23T01:39:38;98859.28;;;21.30;45.83
58668;BME280;59852;43.086;25.634;2022-07-23T01:42:03;98862.91;;;21.37;45.45
58668;BME280;59852;43.086;25.634;2022-07-23T01:44:28;98868.06;;;21.39;44.83
58668;BME280;59852;43.086;25.634;2022-07-23T01:46:55;98861.34;;;21.43;44.46
58668;BME280;59852;43.086;25.634;2022-07-23T01:49:20;98865.38;;;21.39;44.62
58668;BME280;59852;43.086;25.634;2022-07-23T01:51:45;98867.28;;;21.22;45.14
58668;BME280;59852;43.086;25.634;2022-07-23T01:54:26;98866.81;;;21.18;45.44
58668;BME280;59852;43.086;25.634;2022-07-23T01:56:52;98863.47;;;21.25;45.15
58668;BME280;59852;43.086;25.634;2022-07-23T01:59:17;98866.44;;;21.22;44.76
58668;BME280;59852;43.086;25.634;2022-07-23T02:01:42;98863.59;;;21.31;44.30
58668;BME280;59852;43.086;25.634;2022-07-23T02:04:08;98862.88;;;21.45;44.84
58668;BME280;59852;43.086;25.634;2022-07-23T02:06:34;98867.75;;;21.34;44.78
58668;BME280;59852;43.086;25.634;2022-07-23T02:08:59;98864.75;;;21.37;44.71
58668;BME280;59852;43.086;25.634;2022-07-23T02:11:25;98865.44;;;21.31;45.04
58668;BME280;59852;43.086;25.634;2022-07-23T02:13:50;98867.38;;;21.45;44.77
58668;BME280;59852;43.086;25.634;2022-07-23T02:16:15;98865.59;;;21.29;45.05
58668;BME280;59852;43.086;25.634;2022-07-23T02:18:41;98868.69;;;21.41;44.89
58668;BME280;59852;43.086;25.634;2022-07-23T02:21:06;98860.44;;;21.59;44.66
58668;BME280;59852;43.086;25.634;2022-07-23T02:23:31;98862.78;;;21.31;45.19
58668;BME280;59852;43.086;25.634;2022-07-23T02:25:57;98868.63;;;21.18;45.96
58668;BME280;59852;43.086;25.634;2022-07-23T02:28:22;98865.78;;;21.28;45.27
58668;BME280;59852;43.086;25.634;2022-07-23T02:30:47;98862.13;;;21.52;44.87
58668;BME280;59852;43.086;25.634;2022-07-23T02:33:13;98866.44;;;21.30;45.95
58668;BME280;59852;43.086;25.634;2022-07-23T02:35:38;98875.31;;;21.14;45.99
58668;BME280;59852;43.086;25.634;2022-07-23T02:38:03;98876.66;;;21.10;46.72
58668;BME280;59852;43.086;25.634;2022-07-23T02:40:29;98877.66;;;21.09;45.99
58668;BME280;59852;43.086;25.634;2022-07-23T02:42:54;98877.47;;;21.10;46.19
58668;BME280;59852;43.086;25.634;2022-07-23T02:45:19;98875.06;;;21.24;45.73
58668;BME280;59852;43.086;25.634;2022-07-23T02:47:45;98882.91;;;21.25;46.17
58668;BME280;59852;43.086;25.634;2022-07-23T02:50:10;98883.28;;;21.14;46.26
58668;BME280;59852;43.086;25.634;2022-07-23T02:52:37;98879.34;;;20.94;46.99
58668;BME280;59852;43.086;25.634;2022-07-23T02:55:02;98886.84;;;20.98;47.27
58668;BME280;59852;43.086;25.634;2022-07-23T02:57:28;98888.19;;;21.33;47.67
58668;BME280;59852;43.086;25.634;2022-07-23T02:59:53;98890.28;;;21.07;47.30
58668;BME280;59852;43.086;25.634;2022-07-23T03:02:18;98890.91;;;21.17;46.78
58668;BME280;59852;43.086;25.634;2022-07-23T03:04:44;98893.00;;;20.90;47.21
58668;BME280;59852;43.086;25.634;2022-07-23T03:07:09;98892.75;;;21.16;46.99
58668;BME280;59852;43.086;25.634;2022-07-23T03:09:34;98897.50;;;20.90;47.52
58668;BME280;59852;43.086;25.634;2022-07-23T03:12:00;98901.78;;;20.99;47.62
58668;BME280;59852;43.086;25.634;2022-07-23T03:14:25;98903.72;;;21.13;47.59
58668;BME280;59852;43.086;25.634;2022-07-23T03:16:50;98909.44;;;20.94;47.88
58668;BME280;59852;43.086;25.634;2022-07-23T03:19:16;98906.63;;;20.96;47.22
58668;BME280;59852;43.086;25.634;2022-07-23T03:21:41;98910.41;;;21.01;47.64
58668;BME280;59852;43.086;25.634;2022-07-23T03:24:08;98908.59;;;21.02;48.17
58668;BME280;59852;43.086;25.634;2022-07-23T03:26:34;98911.47;;;21.31;48.34
58668;BME280;59852;43.086;25.634;2022-07-23T03:28:59;98914.97;;;21.24;47.45
58668;BME280;59852;43.086;25.634;2022-07-23T03:31:26;98913.19;;;21.16;48.78
58668;BME280;59852;43.086;25.634;2022-07-23T03:33:51;98904.13;;;20.94;47.31
58668;BME280;59852;43.086;25.634;2022-07-23T03:36:16;98914.13;;;20.84;47.63
58668;BME280;59852;43.086;25.634;2022-07-23T03:38:42;98911.63;;;20.90;48.06
58668;BME280;59852;43.086;25.634;2022-07-23T03:41:07;98907.16;;;21.22;48.52
58668;BME280;59852;43.086;25.634;2022-07-23T03:43:33;98921.06;;;21.01;48.99
58668;BME280;59852;43.086;25.634;2022-07-23T03:45:58;98922.25;;;21.46;48.21
58668;BME280;59852;43.086;25.634;2022-07-23T03:48:23;98923.94;;;21.39;48.36
58668;BME280;59852;43.086;25.634;2022-07-23T03:50:49;98923.59;;;20.95;49.83
58668;BME280;59852;43.086;25.634;2022-07-23T03:53:14;98925.41;;;21.41;49.20
58668;BME280;59852;43.086;25.634;2022-07-23T03:55:39;98931.69;;;21.48;49.54
58668;BME280;59852;43.086;25.634;2022-07-23T03:58:05;98932.69;;;21.47;49.11
58668;BME280;59852;43.086;25.634;2022-07-23T04:00:30;98920.44;;;21.69;48.93
58668;BME280;59852;43.086;25.634;2022-07-23T04:02:55;98927.44;;;21.62;49.34
58668;BME280;59852;43.086;25.634;2022-07-23T04:05:21;98924.75;;;21.70;50.48
58668;BME280;59852;43.086;25.634;2022-07-23T04:07:46;98924.53;;;21.49;49.96
58668;BME280;59852;43.086;25.634;2022-07-23T04:10:11;98933.09;;;21.67;49.21
58668;BME280;59852;43.086;25.634;2022-07-23T04:12:37;98934.75;;;21.68;48.50
58668;BME280;59852;43.086;25.634;2022-07-23T04:15:02;98935.81;;;21.82;48.75
58668;BME280;59852;43.086;25.634;2022-07-23T04:17:28;98937.81;;;21.80;48.45
58668;BME280;59852;43.086;25.634;2022-07-23T04:19:53;98939.91;;;21.39;49.22
58668;BME280;59852;43.086;25.634;2022-07-23T04:22:19;98945.06;;;20.85;51.15
58668;BME280;59852;43.086;25.634;2022-07-23T04:24:44;98938.97;;;21.15;49.89
58668;BME280;59852;43.086;25.634;2022-07-23T04:27:09;98931.84;;;21.55;49.84
58668;BME280;59852;43.086;25.634;2022-07-23T04:29:35;98938.34;;;22.07;48.21
58668;BME280;59852;43.086;25.634;2022-07-23T04:32:00;98934.38;;;22.02;47.71
58668;BME280;59852;43.086;25.634;2022-07-23T04:34:26;98939.19;;;21.99;49.40
58668;BME280;59852;43.086;25.634;2022-07-23T04:36:52;98935.34;;;21.79;48.80
58668;BME280;59852;43.086;25.634;2022-07-23T04:39:17;98939.16;;;22.30;47.26
58668;BME280;59852;43.086;25.634;2022-07-23T04:41:43;98944.06;;;22.41;47.85
58668;BME280;59852;43.086;25.634;2022-07-23T04:44:08;98950.63;;;22.53;47.04
58668;BME280;59852;43.086;25.634;2022-07-23T04:46:33;98952.72;;;22.43;47.38
58668;BME280;59852;43.086;25.634;2022-07-23T04:48:59;98945.56;;;22.44;47.11
58668;BME280;59852;43.086;25.634;2022-07-23T04:51:24;98949.72;;;22.61;47.50
58668;BME280;59852;43.086;25.634;2022-07-23T04:53:49;98957.06;;;22.59;47.04
58668;BME280;59852;43.086;25.634;2022-07-23T04:56:15;98953.22;;;22.61;46.83
58668;BME280;59852;43.086;25.634;2022-07-23T04:58:40;98949.63;;;22.69;47.06
58668;BME280;59852;43.086;25.634;2022-07-23T05:01:06;98955.00;;;22.00;47.16
58668;BME280;59852;43.086;25.634;2022-07-23T05:03:31;98949.47;;;22.10;46.59
58668;BME280;59852;43.086;25.634;2022-07-23T05:05:56;98959.16;;;22.86;46.57
58668;BME280;59852;43.086;25.634;2022-07-23T05:08:22;98955.09;;;22.38;46.44
58668;BME280;59852;43.086;25.634;2022-07-23T05:10:47;98957.63;;;22.69;46.39
58668;BME280;59852;43.086;25.634;2022-07-23T05:13:15;98964.00;;;22.83;46.62
58668;BME280;59852;43.086;25.634;2022-07-23T05:15:41;98966.16;;;22.87;46.28
58668;BME280;59852;43.086;25.634;2022-07-23T05:18:06;98967.63;;;22.52;47.03
58668;BME280;59852;43.086;25.634;2022-07-23T05:20:32;98966.94;;;22.73;45.88
58668;BME280;59852;43.086;25.634;2022-07-23T05:22:57;98966.44;;;23.22;44.97
58668;BME280;59852;43.086;25.634;2022-07-23T05:25:22;98965.31;;;22.87;44.91
58668;BME280;59852;43.086;25.634;2022-07-23T05:27:48;98969.94;;;23.08;44.57
58668;BME280;59852;43.086;25.634;2022-07-23T05:30:13;98968.41;;;22.76;45.43
58668;BME280;59852;43.086;25.634;2022-07-23T05:32:39;98959.78;;;23.47;44.53
58668;BME280;59852;43.086;25.634;2022-07-23T05:35:05;98963.91;;;22.76;44.30
58668;BME280;59852;43.086;25.634;2022-07-23T05:37:31;98962.03;;;23.14;45.12
58668;BME280;59852;43.086;25.634;2022-07-23T05:39:59;98953.19;;;23.29;44.95
58668;BME280;59852;43.086;25.634;2022-07-23T05:42:25;98965.47;;;23.74;43.84
58668;BME280;59852;43.086;25.634;2022-07-23T05:44:50;98955.03;;;23.79;44.19
58668;BME280;59852;43.086;25.634;2022-07-23T05:47:15;98950.09;;;23.97;44.20
58668;BME280;59852;43.086;25.634;2022-07-23T05:49:41;98952.53;;;24.14;43.65
58668;BME280;59852;43.086;25.634;2022-07-23T05:52:07;98954.50;;;24.05;43.21
58668;BME280;59852;43.086;25.634;2022-07-23T05:54:36;98958.97;;;24.19;44.50
58668;BME280;59852;43.086;25.634;2022-07-23T05:57:01;98956.25;;;24.34;43.39
58668;BME280;59852;43.086;25.634;2022-07-23T05:59:27;98962.50;;;24.41;43.15
58668;BME280;59852;43.086;25.634;2022-07-23T06:01:52;98962.09;;;24.01;43.47
58668;BME280;59852;43.086;25.634;2022-07-23T06:04:17;98956.34;;;24.47;44.03
58668;BME280;59852;43.086;25.634;2022-07-23T06:06:43;98960.72;;;24.48;43.76
58668;BME280;59852;43.086;25.634;2022-07-23T06:09:08;98955.91;;;24.44;44.35
58668;BME280;59852;43.086;25.634;2022-07-23T06:11:35;98951.50;;;24.57;43.36
58668;BME280;59852;43.086;25.634;2022-07-23T06:14:01;98951.00;;;24.75;43.75
58668;BME280;59852;43.086;25.634;2022-07-23T06:16:26;98956.13;;;24.98;42.90
58668;BME280;59852;43.086;25.634;2022-07-23T06:18:51;98953.03;;;25.01;42.78
58668;BME280;59852;43.086;25.634;2022-07-23T06:21:17;98959.31;;;25.08;42.41
58668;BME280;59852;43.086;25.634;2022-07-23T06:23:42;98955.34;;;25.04;43.88
58668;BME280;59852;43.086;25.634;2022-07-23T06:26:08;98961.78;;;25.10;42.69
58668;BME280;59852;43.086;25.634;2022-07-23T06:28:33;98957.72;;;25.21;42.32
58668;BME280;59852;43.086;25.634;2022-07-23T06:30:58;98952.78;;;25.17;42.88
58668;BME280;59852;43.086;25.634;2022-07-23T06:33:24;98957.16;;;25.32;42.59
58668;BME280;59852;43.086;25.634;2022-07-23T06:35:49;98951.84;;;25.45;42.44
58668;BME280;59852;43.086;25.634;2022-07-23T06:38:14;98964.03;;;25.48;42.17
58668;BME280;59852;43.086;25.634;2022-07-23T06:40:40;98958.47;;;25.49;42.30
58668;BME280;59852;43.086;25.634;2022-07-23T06:43:05;98957.53;;;25.70;42.65
58668;BME280;59852;43.086;25.634;2022-07-23T06:45:30;98957.59;;;25.77;41.69
58668;BME280;59852;43.086;25.634;2022-07-23T06:47:56;98954.13;;;25.96;40.93
58668;BME280;59852;43.086;25.634;2022-07-23T06:50:21;98957.81;;;25.95;41.26
58668;BME280;59852;43.086;25.634;2022-07-23T06:52:47;98947.53;;;25.98;41.41
58668;BME280;59852;43.086;25.634;2022-07-23T06:55:12;98951.66;;;26.14;41.32
58668;BME280;59852;43.086;25.634;2022-07-23T06:57:37;98951.47;;;26.22;40.74
58668;BME280;59852;43.086;25.634;2022-07-23T07:00:03;98947.56;;;26.31;40.47
58668;BME280;59852;43.086;25.634;2022-07-23T07:02:28;98948.63;;;26.44;40.25
58668;BME280;59852;43.086;25.634;2022-07-23T07:04:54;98948.63;;;26.50;40.70
58668;BME280;59852;43.086;25.634;2022-07-23T07:07:21;98945.09;;;26.63;40.03
58668;BME280;59852;43.086;25.634;2022-07-23T07:09:46;98949.63;;;26.82;39.35
58668;BME280;59852;43.086;25.634;2022-07-23T07:12:11;98948.16;;;26.93;39.66
58668;BME280;59852;43.086;25.634;2022-07-23T07:14:37;98947.94;;;27.01;39.42
58668;BME280;59852;43.086;25.634;2022-07-23T07:17:02;98947.91;;;27.28;39.24
58668;BME280;59852;43.086;25.634;2022-07-23T07:19:27;98942.91;;;27.38;39.29
58668;BME280;59852;43.086;25.634;2022-07-23T07:21:53;98943.94;;;27.37;39.43
58668;BME280;59852;43.086;25.634;2022-07-23T07:24:18;98940.59;;;27.48;38.97
58668;BME280;59852;43.086;25.634;2022-07-23T07:26:44;98928.59;;;27.51;39.15
58668;BME280;59852;43.086;25.634;2022-07-23T07:29:09;98941.69;;;27.85;38.85
58668;BME280;59852;43.086;25.634;2022-07-23T07:31:34;98938.59;;;27.82;38.40
58668;BME280;59852;43.086;25.634;2022-07-23T07:34:00;98931.88;;;27.97;38.64
58668;BME280;59852;43.086;25.634;2022-07-23T07:36:25;98935.38;;;27.98;38.07
58668;BME280;59852;43.086;25.634;2022-07-23T07:38:50;98929.84;;;28.24;37.30
58668;BME280;59852;43.086;25.634;2022-07-23T07:41:16;98925.16;;;28.45;36.89
58668;BME280;59852;43.086;25.634;2022-07-23T07:43:41;98924.75;;;28.41;36.94
58668;BME280;59852;43.086;25.634;2022-07-23T07:46:07;98920.94;;;28.74;36.51
58668;BME280;59852;43.086;25.634;2022-07-23T07:48:35;98918.31;;;28.67;35.34
58668;BME280;59852;43.086;25.634;2022-07-23T07:51:01;98923.88;;;28.47;36.09
58668;BME280;59852;43.086;25.634;2022-07-23T07:53:26;98922.69;;;28.86;35.21
58668;BME280;59852;43.086;25.634;2022-07-23T07:55:52;98913.84;;;28.79;36.28
58668;BME280;59852;43.086;25.634;2022-07-23T07:58:17;98911.53;;;28.83;35.37
58668;BME280;59852;43.086;25.634;2022-07-23T08:00:43;98902.47;;;28.77;36.81
58668;BME280;59852;43.086;25.634;2022-07-23T08:03:08;98912.19;;;29.03;35.50
58668;BME280;59852;43.086;25.634;2022-07-23T08:05:33;98917.56;;;29.22;35.08
58668;BME280;59852;43.086;25.634;2022-07-23T08:07:59;98903.53;;;29.50;34.18
58668;BME280;59852;43.086;25.634;2022-07-23T08:10:25;98906.25;;;29.50;34.41
58668;BME280;59852;43.086;25.634;2022-07-23T08:12:52;98909.69;;;29.57;35.27
58668;BME280;59852;43.086;25.634;2022-07-23T08:15:19;98908.00;;;29.74;34.54
58668;BME280;59852;43.086;25.634;2022-07-23T08:17:44;98903.94;;;29.83;34.60
58668;BME280;59852;43.086;25.634;2022-07-23T08:20:11;98899.28;;;30.02;33.36
58668;BME280;59852;43.086;25.634;2022-07-23T08:25:11;98904.59;;;30.09;33.22
58668;BME280;59852;43.086;25.634;2022-07-23T08:27:36;98894.66;;;30.09;33.01
58668;BME280;59852;43.086;25.634;2022-07-23T08:30:02;98899.59;;;30.36;32.45
58668;BME280;59852;43.086;25.634;2022-07-23T08:32:27;98899.75;;;30.64;32.40
58668;BME280;59852;43.086;25.634;2022-07-23T08:34:52;98899.28;;;30.67;33.13
58668;BME280;59852;43.086;25.634;2022-07-23T08:37:18;98892.84;;;30.68;32.21
58668;BME280;59852;43.086;25.634;2022-07-23T08:39:43;98895.38;;;30.63;32.40
58668;BME280;59852;43.086;25.634;2022-07-23T08:42:08;98890.59;;;30.65;32.13
58668;BME280;59852;43.086;25.634;2022-07-23T08:44:34;98889.97;;;30.63;31.39
58668;BME280;59852;43.086;25.634;2022-07-23T08:47:00;98896.13;;;30.70;31.18
58668;BME280;59852;43.086;25.634;2022-07-23T08:49:25;98891.88;;;30.74;31.02
58668;BME280;59852;43.086;25.634;2022-07-23T08:51:51;98892.91;;;30.97;30.79
58668;BME280;59852;43.086;25.634;2022-07-23T08:54:17;98899.56;;;31.06;29.80
58668;BME280;59852;43.086;25.634;2022-07-23T08:56:43;98893.91;;;31.31;29.13
58668;BME280;59852;43.086;25.634;2022-07-23T08:59:08;98882.38;;;31.35;30.59
58668;BME280;59852;43.086;25.634;2022-07-23T09:01:33;98891.94;;;31.15;29.53
58668;BME280;59852;43.086;25.634;2022-07-23T09:03:59;98897.13;;;31.04;30.26
58668;BME280;59852;43.086;25.634;2022-07-23T09:06:24;98903.53;;;31.38;30.04
58668;BME280;59852;43.086;25.634;2022-07-23T09:08:49;98897.59;;;31.53;29.76
58668;BME280;59852;43.086;25.634;2022-07-23T09:11:15;98892.72;;;31.38;29.42
58668;BME280;59852;43.086;25.634;2022-07-23T09:13:42;98889.78;;;31.40;29.44
58668;BME280;59852;43.086;25.634;2022-07-23T09:18:38;98892.50;;;31.68;29.01
58668;BME280;59852;43.086;25.634;2022-07-23T09:21:14;98891.56;;;31.63;28.79
58668;BME280;59852;43.086;25.634;2022-07-23T09:26:26;98880.69;;;31.75;27.32
58668;BME280;59852;43.086;25.634;2022-07-23T09:28:52;98880.75;;;31.63;27.62
58668;BME280;59852;43.086;25.634;2022-07-23T09:31:19;98875.28;;;31.75;27.88
58668;BME280;59852;43.086;25.634;2022-07-23T09:33:44;98875.84;;;31.88;27.93
58668;BME280;59852;43.086;25.634;2022-07-23T09:36:10;98881.25;;;31.88;27.79
58668;BME280;59852;43.086;25.634;2022-07-23T09:38:36;98873.13;;;31.88;28.10
58668;BME280;59852;43.086;25.634;2022-07-23T09:41:12;98872.47;;;31.98;27.90
58668;BME280;59852;43.086;25.634;2022-07-23T09:43:38;98869.53;;;32.16;25.77
58668;BME280;59852;43.086;25.634;2022-07-23T09:49:09;98864.53;;;32.42;25.70
58668;BME280;59852;43.086;25.634;2022-07-23T09:51:42;98861.31;;;32.62;25.42
58668;BME280;59852;43.086;25.634;2022-07-23T09:54:08;98864.13;;;32.50;26.29
58668;BME280;59852;43.086;25.634;2022-07-23T09:56:45;98864.06;;;32.45;25.26
58668;BME280;59852;43.086;25.634;2022-07-23T09:59:12;98856.91;;;32.39;25.39
58668;BME280;59852;43.086;25.634;2022-07-23T10:01:41;98863.56;;;32.48;25.98
58668;BME280;59852;43.086;25.634;2022-07-23T10:04:07;98853.81;;;32.86;25.36
58668;BME280;59852;43.086;25.634;2022-07-23T10:06:32;98861.69;;;32.70;26.68
58668;BME280;59852;43.086;25.634;2022-07-23T10:08:58;98852.19;;;32.85;25.99
58668;BME280;59852;43.086;25.634;2022-07-23T10:11:25;98858.22;;;32.92;25.56
58668;BME280;59852;43.086;25.634;2022-07-23T10:13:52;98850.41;;;32.95;26.26
58668;BME280;59852;43.086;25.634;2022-07-23T10:16:23;98850.59;;;32.89;27.19
58668;BME280;59852;43.086;25.634;2022-07-23T10:18:48;98846.63;;;32.96;27.00
58668;BME280;59852;43.086;25.634;2022-07-23T10:21:16;98841.59;;;33.05;24.17
58668;BME280;59852;43.086;25.634;2022-07-23T10:23:45;98846.69;;;33.01;23.66
58668;BME280;59852;43.086;25.634;2022-07-23T10:31:14;98826.31;;;33.21;22.45
58668;BME280;59852;43.086;25.634;2022-07-23T10:33:51;98823.31;;;33.17;23.18
58668;BME280;59852;43.086;25.634;2022-07-23T10:41:13;98822.06;;;33.30;23.21
58668;BME280;59852;43.086;25.634;2022-07-23T10:43:38;98802.81;;;33.26;24.39
58668;BME280;59852;43.086;25.634;2022-07-23T10:46:25;98818.53;;;33.51;23.65
58668;BME280;59852;43.086;25.634;2022-07-23T10:51:39;98804.25;;;34.30;23.82
58668;BME280;59852;43.086;25.634;2022-07-23T10:54:24;98806.69;;;33.62;24.49
58668;BME280;59852;43.086;25.634;2022-07-23T10:56:50;98810.38;;;33.51;23.67
58668;BME280;59852;43.086;25.634;2022-07-23T10:59:29;98800.16;;;33.58;24.26
58668;BME280;59852;43.086;25.634;2022-07-23T11:02:05;98804.94;;;33.46;23.85
58668;BME280;59852;43.086;25.634;2022-07-23T11:04:50;98803.03;;;33.47;23.83
58668;BME280;59852;43.086;25.634;2022-07-23T11:07:16;98786.06;;;33.61;24.15
58668;BME280;59852;43.086;25.634;2022-07-23T11:09:42;98796.00;;;33.78;22.62
58668;BME280;59852;43.086;25.634;2022-07-23T11:17:32;98793.00;;;33.79;23.18
58668;BME280;59852;43.086;25.634;2022-07-23T11:22:39;98777.03;;;34.15;23.65
58668;BME280;59852;43.086;25.634;2022-07-23T11:25:05;98795.56;;;33.91;22.67
58668;BME280;59852;43.086;25.634;2022-07-23T11:27:37;98787.00;;;34.04;22.64
58668;BME280;59852;43.086;25.634;2022-07-23T11:30:02;98779.16;;;34.08;22.32
58668;BME280;59852;43.086;25.634;2022-07-23T11:32:29;98779.34;;;34.01;22.71
58668;BME280;59852;43.086;25.634;2022-07-23T11:34:55;98780.91;;;34.29;23.14
58668;BME280;59852;43.086;25.634;2022-07-23T11:39:56;98782.00;;;33.91;21.45
58668;BME280;59852;43.086;25.634;2022-07-23T11:42:22;98784.34;;;34.14;22.07
58668;BME280;59852;43.086;25.634;2022-07-23T11:44:48;98779.75;;;34.20;21.27
58668;BME280;59852;43.086;25.634;2022-07-23T11:47:13;98780.28;;;34.17;21.83
58668;BME280;59852;43.086;25.634;2022-07-23T11:49:39;98781.53;;;34.41;21.55
58668;BME280;59852;43.086;25.634;2022-07-23T11:52:08;98764.00;;;34.17;21.83
58668;BME280;59852;43.086;25.634;2022-07-23T11:54:34;98775.34;;;34.09;22.48
58668;BME280;59852;43.086;25.634;2022-07-23T11:57:00;98773.31;;;34.31;22.71
58668;BME280;59852;43.086;25.634;2022-07-23T11:59:26;98766.00;;;34.32;21.99
58668;BME280;59852;43.086;25.634;2022-07-23T12:01:59;98769.00;;;34.35;20.60
58668;BME280;59852;43.086;25.634;2022-07-23T12:04:40;98764.00;;;34.17;20.00
58668;BME280;59852;43.086;25.634;2022-07-23T12:09:50;98762.06;;;34.55;19.95
58668;BME280;59852;43.086;25.634;2022-07-23T12:12:15;98762.84;;;34.50;20.15
58668;BME280;59852;43.086;25.634;2022-07-23T12:14:57;98755.25;;;34.47;20.02
58668;BME280;59852;43.086;25.634;2022-07-23T12:17:29;98753.38;;;34.53;21.00
58668;BME280;59852;43.086;25.634;2022-07-23T12:19:58;98747.69;;;34.59;20.39
58668;BME280;59852;43.086;25.634;2022-07-23T12:22:24;98757.19;;;34.57;21.24
58668;BME280;59852;43.086;25.634;2022-07-23T12:24:53;98749.09;;;34.19;21.39
58668;BME280;59852;43.086;25.634;2022-07-23T12:27:22;98743.06;;;34.55;21.49
58668;BME280;59852;43.086;25.634;2022-07-23T12:29:48;98743.59;;;34.52;20.55
58668;BME280;59852;43.086;25.634;2022-07-23T12:32:20;98744.28;;;34.32;21.21
58668;BME280;59852;43.086;25.634;2022-07-23T12:34:48;98741.13;;;34.45;21.37
58668;BME280;59852;43.086;25.634;2022-07-23T12:37:30;98741.38;;;34.43;21.69
58668;BME280;59852;43.086;25.634;2022-07-23T12:39:55;98741.13;;;34.45;21.47
58668;BME280;59852;43.086;25.634;2022-07-23T12:42:21;98735.38;;;34.41;22.13
58668;BME280;59852;43.086;25.634;2022-07-23T12:45:03;98734.88;;;34.44;21.81
58668;BME280;59852;43.086;25.634;2022-07-23T12:47:28;98737.53;;;34.39;21.88
58668;BME280;59852;43.086;25.634;2022-07-23T12:49:54;98726.50;;;34.56;22.07
58668;BME280;59852;43.086;25.634;2022-07-23T12:52:19;98732.78;;;34.62;20.40
58668;BME280;59852;43.086;25.634;2022-07-23T12:54:44;98729.72;;;34.48;21.25
58668;BME280;59852;43.086;25.634;2022-07-23T12:57:10;98726.44;;;34.46;21.06
58668;BME280;59852;43.086;25.634;2022-07-23T12:59:35;98717.25;;;34.52;21.01
58668;BME280;59852;43.086;25.634;2022-07-23T13:02:00;98715.84;;;34.44;19.94
58668;BME280;59852;43.086;25.634;2022-07-23T13:04:26;98725.09;;;34.48;19.79
58668;BME280;59852;43.086;25.634;2022-07-23T13:06:56;98718.50;;;34.34;20.69
58668;BME280;59852;43.086;25.634;2022-07-23T13:09:27;98712.06;;;34.45;20.54
58668;BME280;59852;43.086;25.634;2022-07-23T13:11:54;98709.38;;;34.56;19.83
58668;BME280;59852;43.086;25.634;2022-07-23T13:14:20;98710.16;;;34.51;20.13
58668;BME280;59852;43.086;25.634;2022-07-23T13:16:45;98702.31;;;34.55;19.39
58668;BME280;59852;43.086;25.634;2022-07-23T13:19:12;98711.63;;;34.74;19.83
58668;BME280;59852;43.086;25.634;2022-07-23T13:21:38;98710.78;;;34.63;20.15
58668;BME280;59852;43.086;25.634;2022-07-23T13:24:03;98708.06;;;34.63;20.35